createdAt,value
2018-05-31T04:01:22.111Z,76.30
2018-05-31T04:03:51.120Z,76.50
2018-05-31T04:06:21.039Z,76.70
2018-05-31T04:08:50.055Z,76.90
2018-05-31T04:11:19.111Z,76.80
2018-05-31T04:13:48.140Z,76.00
2018-05-31T04:16:17.259Z,75.40
2018-05-31T04:18:46.948Z,74.90
2018-05-31T04:21:16.760Z,73.60
2018-05-31T04:23:46.534Z,73.50
2018-05-31T04:26:15.592Z,73.40
2018-05-31T04:28:44.719Z,73.90
2018-05-31T04:31:13.731Z,74.60
2018-05-31T04:33:43.385Z,73.10
2018-05-31T04:36:12.384Z,72.80
2018-05-31T04:38:41.436Z,73.10
2018-05-31T04:41:10.469Z,73.70
2018-05-31T04:43:39.519Z,73.90
2018-05-31T04:46:08.548Z,74.10
2018-05-31T04:48:38.362Z,75.20
2018-05-31T04:51:07.370Z,75.20
2018-05-31T04:53:36.419Z,75.30
2018-05-31T04:56:05.456Z,75.20
2018-05-31T04:58:34.499Z,75.20
2018-05-31T05:01:03.530Z,75.00
2018-05-31T05:03:32.583Z,75.00
2018-05-31T05:06:01.610Z,74.90
2018-05-31T05:08:30.671Z,74.80
2018-05-31T05:10:59.684Z,74.50
2018-05-31T05:13:29.505Z,74.10
2018-05-31T05:15:58.514Z,74.10
2018-05-31T05:18:27.610Z,74.00
2018-05-31T05:20:56.634Z,74.10
2018-05-31T05:23:25.643Z,74.40
2018-05-31T05:25:54.689Z,75.20
2018-05-31T05:28:23.726Z,74.80
2018-05-31T05:30:52.775Z,74.40
2018-05-31T05:33:21.950Z,74.30
2018-05-31T05:35:51.796Z,74.30
2018-05-31T05:38:20.807Z,74.30
2018-05-31T05:40:49.892Z,74.70
2018-05-31T05:43:18.914Z,74.60
2018-05-31T05:45:48.785Z,74.30
2018-05-31T05:48:18.292Z,74.50
2018-05-31T05:50:47.493Z,74.00
2018-05-31T05:53:16.514Z,74.30
2018-05-31T05:55:45.563Z,73.70
2018-05-31T05:58:14.579Z,73.60
2018-05-31T06:00:43.628Z,73.40
2018-05-31T06:03:13.412Z,72.60
2018-05-31T06:05:42.466Z,72.50
2018-05-31T06:08:11.486Z,72.20
2018-05-31T06:10:40.534Z,72.30
2018-05-31T06:13:09.549Z,72.40
2018-05-31T06:15:38.597Z,72.20
2018-05-31T06:18:07.609Z,72.00
2018-05-31T06:20:37.427Z,71.70
2018-05-31T06:23:06.448Z,71.60
2018-05-31T06:25:35.491Z,71.00
2018-05-31T06:28:04.509Z,70.40
2018-05-31T06:30:33.567Z,71.10
2018-05-31T06:33:02.630Z,70.70
2018-05-31T06:35:32.413Z,71.40
2018-05-31T06:38:01.415Z,71.20
2018-05-31T06:40:31.236Z,69.00
2018-05-31T06:43:00.276Z,68.90
2018-05-31T06:45:29.250Z,68.30
2018-05-31T06:47:58.311Z,67.80
2018-05-31T06:50:27.530Z,66.40
2018-05-31T06:52:56.540Z,66.80
2018-05-31T06:55:25.618Z,64.30
2018-05-31T06:57:54.640Z,63.70
2018-05-31T07:00:23.680Z,64.30
2018-05-31T07:02:53.463Z,63.90
2018-05-31T07:05:22.506Z,63.90
2018-05-31T07:07:51.523Z,63.50
2018-05-31T07:10:20.571Z,63.00
2018-05-31T07:12:49.622Z,64.00
2018-05-31T07:15:18.675Z,64.40
2018-05-31T07:17:47.707Z,62.40
2018-05-31T07:20:16.738Z,62.00
2018-05-31T07:22:45.751Z,59.20
2018-05-31T07:25:15.551Z,59.70
2018-05-31T07:27:44.560Z,59.70
2018-05-31T07:30:13.611Z,58.70
2018-05-31T07:32:42.636Z,59.10
2018-05-31T07:35:11.643Z,58.40
2018-05-31T07:37:40.695Z,56.90
2018-05-31T07:40:09.735Z,57.00
2018-05-31T07:42:38.751Z,56.60
2018-05-31T07:45:07.820Z,55.90
2018-05-31T07:47:37.587Z,54.10
2018-05-31T07:50:06.603Z,54.00
2018-05-31T07:52:35.675Z,52.60
2018-05-31T07:55:04.695Z,55.00
2018-05-31T07:57:33.739Z,55.60
2018-05-31T15:02:06.364Z,36.30
2018-05-31T15:04:35.399Z,36.30
2018-05-31T15:07:04.440Z,38.60
2018-05-31T15:09:33.459Z,38.40
2018-05-31T15:12:02.491Z,40.00
2018-05-31T15:14:31.510Z,42.40
2018-05-31T15:17:00.563Z,43.00
2018-05-31T15:19:29.576Z,44.10
2018-05-31T15:21:58.613Z,44.10
2018-05-31T15:24:27.635Z,44.40
2018-05-31T15:26:56.676Z,45.30
2018-05-31T15:29:25.703Z,46.50
2018-05-31T15:31:54.744Z,47.90
2018-05-31T15:34:23.751Z,48.30
2018-05-31T15:36:52.803Z,48.90
2018-05-31T15:39:22.602Z,49.70
2018-05-31T15:41:51.700Z,49.70
2018-05-31T15:44:20.732Z,50.10
2018-05-31T15:46:49.739Z,50.20
2018-05-31T15:49:18.811Z,51.00
2018-05-31T15:51:48.579Z,51.70
2018-05-31T15:54:17.585Z,51.70
2018-05-31T15:56:46.635Z,52.20
2018-05-31T15:59:16.563Z,46.20
2018-05-31T16:01:45.596Z,44.60
2018-05-31T16:04:14.606Z,43.30
2018-05-31T16:06:44.414Z,43.40
2018-05-31T16:09:13.423Z,43.40
2018-05-31T16:11:42.464Z,43.20
2018-05-31T16:14:11.523Z,42.90
2018-05-31T16:16:40.525Z,44.70
2018-05-31T16:19:09.576Z,45.60
2018-05-31T16:21:38.583Z,45.90
2018-05-31T16:24:07.643Z,47.60
2018-05-31T16:26:36.670Z,48.50
2018-05-31T16:29:06.448Z,48.70
2018-05-31T16:31:37.227Z,48.70
2018-05-31T16:34:07.142Z,50.20
2018-05-31T16:36:36.191Z,50.20
2018-05-31T16:39:06.021Z,51.70
2018-05-31T16:41:35.096Z,52.70
2018-05-31T16:44:04.117Z,55.80
2018-05-31T16:46:33.124Z,57.90
2018-05-31T16:49:02.961Z,58.90
2018-05-31T16:51:31.979Z,58.90
2018-05-31T16:54:00.991Z,59.60
2018-05-31T16:56:30.041Z,59.90
2018-05-31T16:58:59.085Z,62.10
2018-05-31T17:01:28.155Z,63.90
2018-05-31T17:03:57.186Z,63.30
2018-05-31T17:06:26.972Z,64.40
2018-05-31T17:08:56.015Z,64.40
2018-05-31T17:11:25.067Z,65.40
2018-05-31T17:13:54.092Z,64.70
2018-05-31T17:16:23.130Z,65.60
2018-05-31T17:18:52.184Z,66.80
2018-05-31T17:21:21.194Z,67.90
2018-05-31T17:23:50.234Z,68.90
2018-05-31T17:26:19.271Z,69.10
2018-05-31T17:28:48.329Z,69.70
2018-05-31T17:31:17.336Z,69.40
2018-05-31T17:33:47.143Z,69.40
2018-05-31T17:36:16.159Z,69.40
2018-05-31T17:38:45.198Z,69.10
2018-05-31T17:41:14.207Z,69.90
2018-05-31T17:43:43.260Z,70.00
2018-05-31T17:46:12.280Z,69.60
2018-05-31T17:48:41.296Z,69.20
2018-05-31T17:51:10.352Z,69.50
2018-05-31T17:53:39.374Z,69.50
2018-05-31T17:56:08.391Z,69.60
2018-05-31T17:58:38.210Z,69.20
2018-05-31T18:01:07.214Z,69.20
2018-05-31T18:03:36.266Z,68.60
2018-05-31T18:06:05.266Z,68.10
2018-05-31T18:08:34.348Z,68.50
2018-05-31T18:11:03.364Z,68.80
2018-05-31T18:13:32.373Z,69.70
2018-05-31T18:16:02.199Z,71.00
2018-05-31T18:18:31.505Z,70.90
2018-05-31T18:21:00.509Z,71.40
2018-05-31T18:23:29.550Z,70.70
2018-05-31T18:25:58.578Z,71.00
2018-05-31T18:28:28.396Z,71.50
2018-05-31T18:30:57.408Z,71.50
2018-05-31T18:33:26.420Z,71.40
2018-05-31T18:35:55.459Z,71.00
2018-05-31T18:38:25.268Z,71.00
2018-05-31T18:40:55.047Z,70.90
2018-05-31T18:43:24.090Z,70.70
2018-05-31T18:45:53.104Z,71.60
2018-05-31T18:48:22.116Z,71.00
2018-05-31T18:50:51.203Z,71.10
2018-05-31T18:53:20.219Z,71.10
2018-05-31T18:55:49.235Z,71.50
2018-05-31T18:58:20.901Z,71.80
2018-05-31T19:00:49.923Z,71.80
2018-05-31T19:03:18.937Z,71.80
2018-05-31T19:05:48.042Z,72.10
2018-05-31T19:08:17.047Z,72.40
2018-05-31T19:10:46.128Z,72.80
2018-05-31T19:13:20.729Z,72.90
2018-05-31T19:15:49.762Z,72.80
2018-05-31T19:18:24.323Z,73.40
2018-05-31T19:20:53.375Z,73.10
2018-05-31T19:23:22.398Z,73.10
2018-05-31T19:25:51.447Z,73.00
2018-05-31T19:28:20.456Z,73.20
2018-05-31T19:30:54.909Z,73.40
2018-05-31T19:33:24.687Z,73.40
2018-05-31T19:35:59.214Z,73.40
2018-05-31T19:38:28.222Z,73.70
2018-05-31T19:40:57.311Z,74.10
2018-05-31T19:43:31.920Z,74.70
2018-05-31T19:46:01.011Z,74.70
2018-05-31T19:48:30.014Z,74.60
2018-05-31T19:50:59.028Z,74.60
2018-05-31T19:53:33.552Z,74.40
2018-05-31T19:56:03.352Z,74.00
2018-05-31T19:58:37.971Z,73.90
2018-05-31T20:01:12.629Z,74.00
2018-05-31T20:03:41.627Z,74.10
2018-05-31T20:06:10.717Z,74.30
2018-05-31T20:08:39.723Z,74.40
2018-05-31T20:11:08.740Z,74.20
2018-05-31T20:13:37.790Z,74.10
2018-05-31T20:16:07.583Z,73.60
2018-05-31T20:18:36.603Z,73.60
2018-05-31T20:21:05.693Z,73.20
2018-05-31T20:23:35.491Z,71.60
2018-05-31T20:26:05.363Z,70.90
2018-05-31T20:28:34.381Z,71.00
2018-05-31T20:31:04.195Z,64.70
2018-05-31T20:33:33.289Z,63.70
2018-05-31T20:36:02.341Z,64.40
2018-05-31T20:38:31.356Z,63.90
2018-05-31T20:41:01.244Z,63.90
2018-05-31T20:43:31.340Z,64.00
2018-05-31T20:46:00.428Z,64.00
2018-05-31T20:48:29.465Z,62.90
2018-05-31T20:50:58.492Z,62.10
2018-05-31T20:53:28.093Z,62.10
2018-05-31T20:55:57.135Z,62.80
2018-05-31T20:58:26.147Z,61.20
2018-05-31T21:00:55.194Z,61.20
2018-05-31T21:03:24.984Z,63.40
2018-05-31T21:05:54.023Z,63.20
2018-05-31T21:08:23.043Z,64.20
2018-05-31T21:10:52.085Z,66.70
2018-05-31T21:13:21.096Z,68.00
2018-05-31T21:15:50.179Z,68.90
2018-05-31T21:18:20.150Z,71.60
2018-05-31T21:20:49.414Z,71.50
2018-05-31T21:23:19.529Z,71.60
2018-05-31T21:25:48.863Z,72.20
2018-05-31T21:28:17.870Z,72.70
2018-05-31T21:30:46.918Z,73.30
2018-05-31T21:33:16.035Z,71.90
2018-05-31T21:35:46.024Z,72.40
2018-05-31T21:38:15.035Z,73.20
2018-05-31T21:40:44.101Z,73.70
2018-05-31T21:43:14.096Z,73.20
2018-05-31T21:45:44.811Z,73.00
2018-05-31T21:48:14.052Z,73.10
2018-05-31T21:50:43.903Z,75.20
2018-05-31T21:53:16.051Z,74.70
2018-05-31T21:55:45.952Z,74.80
2018-05-31T21:58:17.007Z,74.90
